الصفحة الرئيسية
METAR-TAF:

METAR-TAF

مطار :

مطار فيتيبسك فوستوتشني

فيتيبسك, بيلاروسيا

دائرة عرض: 55-10N, خط طول: 030-13E, ارتفاع: 176 متر

مراقبة الطقس الحالي

تاريخ ووقت الإصدار 42 دقيقة قبل الساعة 14:00UTC
ريح 2 عقدةمن اتجاهات متغيرة
درجة الحرارة 25°درجة مئوية
الرطوبة 47%
ضغط 1011 hPa
الرؤية 10 كم أو أكثر
الغيوم لا تقل 1500 م ولا وجود لمزنة ركامية السحاب الأسود

METAR: UMII 241400Z VRB01MPS CAVOK 25/13 Q1011 NOSIG

زمن: 17:42 (14:42 UTC)

توقعات

تاريخ ووقت الإصدار 35 دقيقة قبل الساعة 14:07UTC
التوقعات صالحة من24 الساعة 15 UTC إلى 24 الساعة 24 UTC
ريح 6 عقدة من الشرق/الجنوب الشرقي
الرؤية 10 كم أو أكثر
غيوم مفككة على ارتفاع 2000 قدم
مؤقت
من 24 الساعة 18 UTC إلى 24 الساعة 24 UTC
الرؤية: 3000 متر
غيوم متفرقة على ارتفاع 700 قدم
غيوم مفككة على ارتفاع 2500 قدم, مزنة ركامية.
غشاء,

TAF: UMII 241407Z 2415/2424 11003MPS 9999 BKN020 TEMPO 2418/2424 3000 BR SCT007 BKN025CB

أرصاد الطقس والتوقعات من أكثر من 4000 مطار (تقارير الطقس للمطار METAR والتنبؤ بالطقس بالمطارTAF).

المحطات المتاحة هي النقط الصفراء والحمراء على الخريطة.

حرك المؤشر فوق النقطة لمعرفة اسم المحطة.

ثم انقر لمعرفة أرصاد وتوقعات الطقس.

لتغيير الخارطة: اضغط على الأزرار الخضراء مع رمز الصليب الأسود للتكبير. على الزر الأخضر مع شرطة للتصغير، أو على الأسهم الخضراء للخرائط المجاورة.


METAR-TAF: